createdAt,value
2023-04-08T00:00:31.814Z,67.64
2023-04-08T00:03:05.157Z,67.46
2023-04-08T00:05:38.064Z,67.51
2023-04-08T00:08:10.938Z,67.49
2023-04-08T00:10:43.785Z,67.39
2023-04-08T00:13:18.511Z,67.65
2023-04-08T00:15:52.402Z,67.44
2023-04-08T00:18:25.276Z,67.75
2023-04-08T00:20:58.249Z,67.69
2023-04-08T00:23:31.106Z,67.85
2023-04-08T00:26:21.551Z,67.88
2023-04-08T00:28:56.272Z,67.87
2023-04-08T00:31:29.238Z,67.91
2023-04-08T00:34:05.149Z,68.05
2023-04-08T00:36:38.019Z,67.85
2023-04-08T00:39:11.297Z,67.86
2023-04-08T00:41:44.262Z,68.11
2023-04-08T00:44:21.392Z,68.08
2023-04-08T00:46:54.252Z,68.11
2023-04-08T00:49:27.513Z,68.18
2023-04-08T00:52:00.585Z,68.17
2023-04-08T00:54:33.484Z,68.06
2023-04-08T00:57:07.065Z,68.10
2023-04-08T00:59:42.018Z,68.20
2023-04-08T01:02:30.003Z,68.14
2023-04-08T01:05:06.502Z,68.18
2023-04-08T01:07:45.808Z,68.37
2023-04-08T01:10:23.375Z,68.28
2023-04-08T01:12:58.251Z,68.42
2023-04-08T01:15:35.484Z,68.31
2023-04-08T01:18:10.609Z,68.26
2023-04-08T01:20:44.311Z,68.38
2023-04-08T01:23:24.036Z,68.47
2023-04-08T01:25:58.654Z,68.44
2023-04-08T01:28:34.735Z,68.35
2023-04-08T01:31:09.214Z,68.41
2023-04-08T01:33:42.877Z,68.31
2023-04-08T01:36:16.888Z,68.41
2023-04-08T01:38:50.498Z,68.14
2023-04-08T01:41:25.161Z,68.33
2023-04-08T01:43:59.211Z,68.29
2023-04-08T01:46:33.570Z,68.07
2023-04-08T01:49:07.601Z,68.23
2023-04-08T01:51:42.468Z,68.04
2023-04-08T01:54:15.406Z,68.24
2023-04-08T01:56:52.187Z,67.97
2023-04-08T01:59:32.709Z,68.02
2023-04-08T02:02:09.986Z,67.99
2023-04-08T02:04:43.094Z,67.88
2023-04-08T02:07:16.644Z,67.80
2023-04-08T02:09:49.787Z,67.50
2023-04-08T02:12:24.303Z,67.25
2023-04-08T02:14:58.632Z,67.31
2023-04-08T02:17:37.470Z,67.31
2023-04-08T02:20:14.647Z,67.15
2023-04-08T02:22:51.645Z,67.16
2023-04-08T02:25:26.364Z,67.06
2023-04-08T02:28:02.416Z,67.14
2023-04-08T02:30:36.794Z,66.92
2023-04-08T02:33:09.955Z,66.83
2023-04-08T02:35:44.350Z,66.93
2023-04-08T02:38:17.247Z,66.65
2023-04-08T02:40:51.131Z,66.37
2023-04-08T02:43:29.862Z,66.53
2023-04-08T02:46:04.236Z,66.26
2023-04-08T02:48:37.344Z,66.21
2023-04-08T02:51:10.241Z,66.09
2023-04-08T02:53:43.223Z,65.93
2023-04-08T02:56:16.140Z,65.75
2023-04-08T02:58:52.306Z,65.57
2023-04-08T03:01:25.942Z,65.60
2023-04-08T03:03:58.852Z,65.47
2023-04-08T03:06:32.222Z,65.34
2023-04-08T03:09:05.913Z,65.33
2023-04-08T03:11:38.714Z,65.19
2023-04-08T03:14:12.835Z,65.28
2023-04-08T03:16:45.745Z,65.18
2023-04-08T03:19:18.618Z,65.22
2023-04-08T03:21:51.450Z,65.17
2023-04-08T03:24:24.417Z,65.26
2023-04-08T03:26:57.224Z,65.16
2023-04-08T03:29:31.418Z,65.11
2023-04-08T03:32:04.437Z,65.18
2023-04-08T03:34:37.247Z,65.28
2023-04-08T03:37:10.058Z,65.17
2023-04-08T03:39:42.923Z,65.03
2023-04-08T03:42:15.889Z,65.10
2023-04-08T03:44:50.123Z,65.11
2023-04-08T03:47:23.060Z,64.99
2023-04-08T03:49:59.727Z,65.04
2023-04-08T03:52:32.541Z,64.86
2023-04-08T03:55:06.169Z,65.00
2023-04-08T03:57:38.948Z,64.98
2023-04-08T04:00:14.463Z,64.83
2023-04-08T04:02:47.348Z,64.79
2023-04-08T04:05:20.495Z,64.89
2023-04-08T04:07:53.343Z,64.70
2023-04-08T04:10:26.328Z,64.86
2023-04-08T04:12:59.214Z,64.86
2023-04-08T04:15:33.424Z,64.76
2023-04-08T04:18:06.431Z,64.87
2023-04-08T04:20:42.459Z,65.03
2023-04-08T04:23:15.265Z,64.98
2023-04-08T04:25:48.053Z,64.92
2023-04-08T04:28:20.835Z,64.94
2023-04-08T04:30:56.572Z,64.98
2023-04-08T04:33:29.716Z,64.84
2023-04-08T04:36:02.912Z,64.77
2023-04-08T04:38:35.920Z,64.85
2023-04-08T04:41:08.793Z,64.89
2023-04-08T04:43:41.708Z,64.79
2023-04-08T04:46:16.132Z,64.82
2023-04-08T04:48:49.144Z,64.73
2023-04-08T04:51:22.088Z,64.87
2023-04-08T04:53:54.889Z,64.80
2023-04-08T04:56:27.865Z,64.95
2023-04-08T04:59:00.710Z,65.10
2023-04-08T05:01:35.064Z,65.37
2023-04-08T05:04:08.255Z,65.39
2023-04-08T05:06:41.434Z,65.38
2023-04-08T05:09:14.204Z,65.44
2023-04-08T05:11:47.003Z,65.45
2023-04-08T05:14:19.794Z,65.57
2023-04-08T05:16:53.924Z,65.40
2023-04-08T05:19:26.839Z,65.44
2023-04-08T05:21:59.750Z,65.20
2023-04-08T05:24:32.605Z,65.13
2023-04-08T05:27:05.484Z,65.15
2023-04-08T05:29:38.394Z,64.86
2023-04-08T05:32:12.549Z,64.61
2023-04-08T05:34:45.709Z,64.68
2023-04-08T05:37:18.485Z,64.33
2023-04-08T05:39:51.352Z,64.18
2023-04-08T05:42:27.383Z,63.87
2023-04-08T05:45:00.388Z,63.60
2023-04-08T05:47:34.629Z,63.24
2023-04-08T05:50:08.914Z,62.76
2023-04-08T05:52:45.776Z,62.28
2023-04-08T05:55:18.629Z,62.02
2023-04-08T05:57:51.431Z,61.59
2023-04-08T06:00:24.216Z,61.43
2023-04-08T06:02:58.465Z,61.00
2023-04-08T06:05:32.613Z,60.71
2023-04-08T06:08:06.082Z,60.25
2023-04-08T06:10:38.939Z,59.82
2023-04-08T06:13:11.733Z,59.58
2023-04-08T06:15:44.640Z,59.14
2023-04-08T06:18:19.136Z,58.98
2023-04-08T06:20:52.023Z,58.67
2023-04-08T06:23:24.903Z,58.31
2023-04-08T06:25:57.738Z,58.16
2023-04-08T06:28:30.793Z,57.74
2023-04-08T06:31:03.599Z,57.51
2023-04-08T06:33:37.763Z,57.00
2023-04-08T06:36:11.284Z,56.51
2023-04-08T06:38:44.102Z,56.06
2023-04-08T06:41:16.950Z,55.71
2023-04-08T06:43:49.850Z,55.40
2023-04-08T06:46:22.776Z,54.68
2023-04-08T06:48:57.098Z,54.73
2023-04-08T06:51:29.963Z,54.13
2023-04-08T06:54:02.773Z,53.38
2023-04-08T06:56:35.588Z,53.04
2023-04-08T06:59:08.397Z,52.54
2023-04-08T07:01:41.764Z,52.24
2023-04-08T07:04:16.091Z,51.88
2023-04-08T07:06:49.016Z,51.68
2023-04-08T07:09:21.849Z,51.26
2023-04-08T07:11:54.744Z,50.66
2023-04-08T07:14:27.570Z,50.54
2023-04-08T07:17:00.638Z,50.13
2023-04-08T07:19:34.956Z,50.08
2023-04-08T07:22:07.737Z,49.54
2023-04-08T07:24:42.893Z,48.86
2023-04-08T07:27:15.852Z,48.42
2023-04-08T07:29:53.260Z,48.12
2023-04-08T07:32:26.183Z,47.49
2023-04-08T07:35:01.780Z,47.14
2023-04-08T07:37:34.634Z,46.79
2023-04-08T07:40:08.859Z,46.26
2023-04-08T07:42:41.742Z,45.75
2023-04-08T07:45:14.555Z,45.41
2023-04-08T07:47:47.497Z,45.10
2023-04-08T07:50:21.772Z,44.45
2023-04-08T07:52:54.858Z,43.98
2023-04-08T07:55:27.684Z,43.44
2023-04-08T07:58:01.294Z,42.99
2023-04-08T08:00:34.110Z,42.26
2023-04-08T08:03:06.960Z,41.81
2023-04-08T08:05:41.437Z,41.01
2023-04-08T08:08:14.250Z,40.59
2023-04-08T08:10:47.120Z,39.39
2023-04-08T08:13:22.097Z,38.61
2023-04-08T08:15:55.088Z,37.21
2023-04-08T08:18:27.933Z,36.55
2023-04-08T08:21:02.747Z,35.09
2023-04-08T08:23:35.552Z,33.45
2023-04-08T08:26:10.719Z,31.85
2023-04-08T08:28:43.618Z,30.08
2023-04-08T08:31:16.447Z,29.14
2023-04-08T08:33:49.434Z,27.71
2023-04-08T08:36:23.699Z,29.10
2023-04-08T08:38:56.520Z,26.11
2023-04-08T08:41:35.284Z,24.52
2023-04-08T08:44:08.975Z,23.35
2023-04-08T08:46:45.450Z,21.99
2023-04-08T08:49:18.542Z,21.54
2023-04-08T08:51:55.908Z,20.53
2023-04-08T08:54:28.893Z,20.07
2023-04-08T08:57:01.755Z,19.35
2023-04-08T08:59:34.982Z,21.27
2023-04-08T09:02:24.235Z,22.50
2023-04-08T09:04:59.633Z,18.94
2023-04-08T09:07:38.142Z,17.68
2023-04-08T09:10:11.683Z,17.59
2023-04-08T09:12:55.960Z,17.01
2023-04-08T09:15:29.022Z,16.86
2023-04-08T09:18:02.313Z,16.48
2023-04-08T09:20:35.641Z,16.37
2023-04-08T09:23:09.803Z,15.80
2023-04-08T09:25:42.609Z,16.20
2023-04-08T09:28:21.293Z,15.66
2023-04-08T09:30:54.088Z,15.73
2023-04-08T09:33:32.336Z,15.80
2023-04-08T09:36:05.267Z,15.65
2023-04-08T09:38:39.622Z,14.72
2023-04-08T09:41:16.831Z,14.87
2023-04-08T09:43:52.477Z,14.16
2023-04-08T09:46:28.796Z,13.74
2023-04-08T09:49:07.393Z,13.16
2023-04-08T09:51:44.733Z,12.58
2023-04-08T09:54:23.155Z,12.55
2023-04-08T09:57:10.722Z,12.54
2023-04-08T09:59:58.736Z,12.74
2023-04-08T10:02:42.180Z,12.67
2023-04-08T10:05:16.930Z,12.39
2023-04-08T10:07:51.385Z,12.08
2023-04-08T10:10:27.213Z,11.90
2023-04-08T10:13:00.480Z,12.16
2023-04-08T10:15:34.152Z,11.41
2023-04-08T10:18:33.833Z,12.37
2023-04-08T10:21:27.183Z,13.08
2023-04-08T10:24:05.948Z,13.50
2023-04-08T10:26:42.279Z,13.37
2023-04-08T10:29:34.723Z,13.78
2023-04-08T10:32:07.745Z,14.12
2023-04-08T10:34:54.572Z,15.11
2023-04-08T10:37:27.482Z,14.50
2023-04-08T10:40:00.407Z,14.56
2023-04-08T10:42:34.628Z,13.79
2023-04-08T10:45:08.498Z,13.42
2023-04-08T10:47:41.780Z,12.85
2023-04-08T10:50:16.520Z,12.21
2023-04-08T10:52:50.057Z,11.51
2023-04-08T10:55:24.964Z,10.60
2023-04-08T10:58:07.019Z,10.28
2023-04-08T11:00:41.114Z,10.62
2023-04-08T11:03:15.672Z,10.75
2023-04-08T11:05:50.954Z,10.54
2023-04-08T11:08:29.100Z,10.53
2023-04-08T11:11:02.525Z,10.71
2023-04-08T11:13:37.194Z,10.43
2023-04-08T11:16:18.094Z,10.37
2023-04-08T11:18:55.565Z,10.18
2023-04-08T11:21:29.674Z,10.61
2023-04-08T11:24:02.495Z,10.90
2023-04-08T11:26:35.682Z,12.60
2023-04-08T11:29:12.797Z,13.52
2023-04-08T11:31:47.333Z,13.66
2023-04-08T11:34:24.163Z,15.04
2023-04-08T11:36:58.711Z,16.08
2023-04-08T11:39:32.159Z,16.33
2023-04-08T11:42:05.167Z,17.15
2023-04-08T11:44:40.486Z,17.73
2023-04-08T11:47:13.346Z,18.13
2023-04-08T11:49:46.296Z,17.90
2023-04-08T11:52:19.107Z,18.62
2023-04-08T11:54:51.912Z,18.89
2023-04-08T11:57:30.496Z,18.53
2023-04-08T12:00:06.718Z,18.62
2023-04-08T12:02:47.147Z,18.20
2023-04-08T12:05:20.532Z,18.12
2023-04-08T12:07:53.454Z,18.00
2023-04-08T12:10:26.555Z,18.46
2023-04-08T12:12:59.474Z,19.25
2023-04-08T12:15:33.875Z,19.88
2023-04-08T12:18:06.883Z,19.61
2023-04-08T12:20:39.849Z,19.12
2023-04-08T12:23:12.710Z,19.90
2023-04-08T12:25:45.587Z,20.04
2023-04-08T12:28:18.225Z,20.50
2023-04-08T12:30:52.579Z,21.14
2023-04-08T12:33:25.431Z,21.59
2023-04-08T12:35:59.298Z,21.14
2023-04-08T12:38:33.488Z,21.00
2023-04-08T12:41:07.754Z,21.23
2023-04-08T12:43:42.195Z,21.61
2023-04-08T12:46:16.636Z,22.36
2023-04-08T12:48:56.556Z,23.03
2023-04-08T12:51:36.740Z,23.80
2023-04-08T12:54:09.757Z,23.83
2023-04-08T12:56:43.319Z,24.68
2023-04-08T12:59:16.333Z,25.55
2023-04-08T13:01:50.774Z,26.09
2023-04-08T13:04:52.576Z,26.56
2023-04-08T13:07:27.256Z,27.86
2023-04-08T13:10:08.097Z,28.52
2023-04-08T13:12:42.660Z,29.01
2023-04-08T13:15:23.203Z,29.64
2023-04-08T13:18:00.122Z,29.39
2023-04-08T13:20:33.613Z,29.47
2023-04-08T13:23:06.298Z,28.45
2023-04-08T13:25:39.156Z,28.40
2023-04-08T13:28:12.073Z,28.67
2023-04-08T13:30:44.984Z,28.79
2023-04-08T13:33:19.157Z,29.27
2023-04-08T13:35:52.044Z,29.20
2023-04-08T13:38:25.037Z,29.99
2023-04-08T13:40:57.851Z,29.93
2023-04-08T13:43:30.664Z,30.21
2023-04-08T13:46:03.621Z,29.70
2023-04-08T13:48:38.233Z,29.48
2023-04-08T13:51:11.251Z,29.47
2023-04-08T13:53:44.188Z,29.71
2023-04-08T13:56:17.004Z,29.93
2023-04-08T13:58:56.766Z,29.84
2023-04-08T14:01:30.542Z,30.29
2023-04-08T14:04:04.924Z,29.66
2023-04-08T14:06:37.859Z,30.33
2023-04-08T14:09:10.799Z,30.31
2023-04-08T14:11:43.675Z,30.23
2023-04-08T14:14:16.791Z,30.53
2023-04-08T14:16:49.756Z,30.58
2023-04-08T14:19:25.918Z,31.56
2023-04-08T14:21:58.748Z,31.21
2023-04-08T14:24:31.590Z,30.67
2023-04-08T14:27:04.945Z,30.50
2023-04-08T14:29:37.812Z,30.33
2023-04-08T14:32:10.596Z,30.44
2023-04-08T14:34:44.823Z,30.43
2023-04-08T14:37:18.987Z,30.72
2023-04-08T14:39:51.818Z,31.18
2023-04-08T14:42:24.799Z,31.22
2023-04-08T14:44:58.644Z,31.30
2023-04-08T14:47:31.641Z,31.65
2023-04-08T14:50:07.797Z,32.18
2023-04-08T14:52:40.683Z,32.00
2023-04-08T14:55:13.677Z,32.12
2023-04-08T14:57:46.636Z,32.20
2023-04-08T15:00:19.459Z,32.63
2023-04-08T15:02:52.417Z,33.23
2023-04-08T15:05:26.827Z,33.76
2023-04-08T15:07:59.801Z,33.75
2023-04-08T15:10:33.018Z,34.56
2023-04-08T15:13:05.899Z,34.96
2023-04-08T15:15:38.706Z,34.77
2023-04-08T15:18:11.640Z,34.28
2023-04-08T15:20:46.048Z,34.13
2023-04-08T15:23:18.847Z,34.43
2023-04-08T15:25:51.946Z,34.27
2023-04-08T15:28:24.915Z,34.30
2023-04-08T15:30:57.717Z,34.22
2023-04-08T15:33:30.808Z,34.54
2023-04-08T15:36:06.518Z,34.83
2023-04-08T15:38:39.925Z,34.80
2023-04-08T15:41:22.156Z,34.60
2023-04-08T15:43:58.116Z,34.56
2023-04-08T15:46:31.637Z,35.03
2023-04-08T15:49:04.653Z,34.51
2023-04-08T15:51:38.923Z,34.92
2023-04-08T15:54:11.878Z,35.14
2023-04-08T15:56:46.569Z,35.48
2023-04-08T15:59:19.428Z,35.86
2023-04-08T16:01:52.711Z,35.78
2023-04-08T16:04:25.986Z,35.92
2023-04-08T16:07:00.324Z,36.21
2023-04-08T16:09:33.210Z,36.81
2023-04-08T16:12:06.148Z,36.82
2023-04-08T16:14:39.722Z,36.62
2023-04-08T16:17:12.578Z,36.02
2023-04-08T16:19:45.421Z,36.64
2023-04-08T16:22:19.688Z,36.90
2023-04-08T16:24:53.074Z,36.86
2023-04-08T16:27:26.058Z,37.33
2023-04-08T16:29:58.871Z,37.48
2023-04-08T16:32:31.756Z,37.24
2023-04-08T16:35:04.857Z,37.59
2023-04-08T16:37:39.317Z,37.73
2023-04-08T16:40:12.730Z,37.82
2023-04-08T16:42:46.093Z,37.81
2023-04-08T16:45:19.139Z,37.92
2023-04-08T16:47:52.156Z,37.94
2023-04-08T16:50:25.602Z,38.19
2023-04-08T16:52:59.795Z,38.29
2023-04-08T16:55:34.195Z,38.29
2023-04-08T16:58:07.399Z,38.60
2023-04-08T17:00:40.394Z,39.02
2023-04-08T17:03:13.506Z,38.96
2023-04-08T17:05:46.641Z,38.93
2023-04-08T17:08:21.492Z,38.42
2023-04-08T17:10:54.306Z,38.84
2023-04-08T17:13:27.388Z,39.07
2023-04-08T17:16:00.187Z,39.44
2023-04-08T17:18:33.058Z,39.61
2023-04-08T17:21:06.800Z,39.74
2023-04-08T17:23:40.935Z,39.10
2023-04-08T17:26:13.904Z,39.87
2023-04-08T17:28:46.781Z,39.75
2023-04-08T17:31:19.612Z,40.23
2023-04-08T17:33:52.579Z,40.25
2023-04-08T17:36:25.765Z,40.42
2023-04-08T17:38:59.963Z,40.33
2023-04-08T17:41:39.862Z,40.30
2023-04-08T17:44:13.947Z,40.31
2023-04-08T17:46:47.089Z,40.33
2023-04-08T17:49:19.937Z,40.34
2023-04-08T17:51:52.941Z,40.57
2023-04-08T17:54:27.186Z,40.61
2023-04-08T17:57:00.052Z,40.58
2023-04-08T17:59:32.902Z,40.55
2023-04-08T18:02:06.178Z,40.62
2023-04-08T18:04:39.258Z,40.66
2023-04-08T18:07:12.112Z,40.67
2023-04-08T18:09:48.676Z,40.69
2023-04-08T18:12:21.560Z,41.05
2023-04-08T18:14:54.386Z,41.23
2023-04-08T18:17:27.721Z,41.32
2023-04-08T18:20:00.559Z,41.46
2023-04-08T18:22:34.154Z,41.80
2023-04-08T18:25:09.015Z,42.02
2023-04-08T18:27:41.862Z,42.44
2023-04-08T18:30:14.760Z,42.70
2023-04-08T18:32:47.634Z,42.94
2023-04-08T18:35:20.486Z,43.14
2023-04-08T18:37:53.388Z,43.35
2023-04-08T18:40:28.003Z,43.69
2023-04-08T18:43:03.514Z,43.87
2023-04-08T18:45:36.664Z,43.97
2023-04-08T18:48:09.634Z,44.23
2023-04-08T18:50:42.451Z,44.38
2023-04-08T18:53:15.436Z,44.51
2023-04-08T18:55:51.223Z,44.56
2023-04-08T18:58:24.237Z,44.73
2023-04-08T19:00:57.051Z,44.76
2023-04-08T19:03:29.922Z,45.06
2023-04-08T19:06:06.227Z,45.21
2023-04-08T19:08:39.142Z,44.88
2023-04-08T19:11:13.351Z,44.90
2023-04-08T19:13:46.476Z,44.84
2023-04-08T19:16:19.612Z,44.58
2023-04-08T19:18:52.847Z,44.51
2023-04-08T19:21:27.244Z,44.52
2023-04-08T19:24:00.162Z,43.90
2023-04-08T19:26:34.720Z,43.87
2023-04-08T19:29:09.386Z,43.69
2023-04-08T19:31:42.424Z,43.81
2023-04-08T19:34:15.426Z,43.85
2023-04-08T19:36:54.068Z,43.25
2023-04-08T19:39:42.298Z,43.58
2023-04-08T19:42:28.946Z,43.48
2023-04-08T19:45:21.521Z,43.53
2023-04-08T19:48:02.915Z,43.20
2023-04-08T19:50:41.416Z,43.39
2023-04-08T19:53:19.087Z,43.48
2023-04-08T19:56:13.880Z,43.39
2023-04-08T19:58:55.776Z,43.33
2023-04-08T20:01:28.631Z,43.27
2023-04-08T20:04:01.541Z,43.22
2023-04-08T20:06:45.589Z,43.38
2023-04-08T20:09:18.380Z,42.89
2023-04-08T20:11:51.227Z,42.97
2023-04-08T20:14:25.522Z,43.36
2023-04-08T20:16:58.502Z,43.38
2023-04-08T20:19:31.670Z,43.90
2023-04-08T20:22:05.498Z,44.39
2023-04-08T20:24:38.615Z,45.08
2023-04-08T20:27:13.298Z,45.72
2023-04-08T20:29:49.993Z,46.31
2023-04-08T20:32:23.008Z,46.78
2023-04-08T20:34:56.178Z,47.23
2023-04-08T20:37:29.002Z,47.80
2023-04-08T20:40:02.423Z,48.33
2023-04-08T20:42:35.830Z,48.58
2023-04-08T20:45:11.703Z,49.17
2023-04-08T20:47:47.467Z,49.69
2023-04-08T20:50:20.528Z,50.21
2023-04-08T20:52:53.613Z,50.71
2023-04-08T20:55:26.830Z,51.18
2023-04-08T20:58:00.592Z,51.55
2023-04-08T21:00:35.153Z,52.18
2023-04-08T21:03:08.196Z,52.67
2023-04-08T21:05:41.072Z,53.09
2023-04-08T21:08:14.233Z,53.41
2023-04-08T21:10:49.571Z,53.79
2023-04-08T21:13:22.466Z,54.20
2023-04-08T21:15:59.102Z,54.53
2023-04-08T21:18:32.222Z,54.69
2023-04-08T21:21:07.753Z,54.77
2023-04-08T21:23:40.994Z,54.86
2023-04-08T21:26:17.022Z,55.09
2023-04-08T21:28:51.224Z,55.22
2023-04-08T21:31:25.674Z,55.53
2023-04-08T21:34:01.391Z,55.64
2023-04-08T21:36:35.498Z,55.97
2023-04-08T21:39:10.860Z,56.29
2023-04-08T21:41:43.670Z,56.49
2023-04-08T21:44:16.524Z,56.76
2023-04-08T21:46:56.418Z,56.90
2023-04-08T21:49:29.863Z,57.18
2023-04-08T21:52:03.253Z,57.33
2023-04-08T21:54:36.478Z,57.42
2023-04-08T21:57:11.399Z,57.56
2023-04-08T21:59:44.298Z,57.77
2023-04-08T22:02:18.640Z,58.07
2023-04-08T22:04:52.323Z,58.15
2023-04-08T22:07:25.691Z,58.31
2023-04-08T22:09:59.139Z,58.46
2023-04-08T22:12:34.267Z,58.65
2023-04-08T22:15:08.419Z,58.89
2023-04-08T22:17:43.181Z,59.03
2023-04-08T22:20:16.145Z,59.06
2023-04-08T22:22:49.002Z,58.81
2023-04-08T22:25:24.310Z,59.22
2023-04-08T22:27:57.368Z,59.39
2023-04-08T22:30:31.193Z,59.70
2023-04-08T22:33:05.266Z,58.48
2023-04-08T22:35:38.115Z,58.97
2023-04-08T22:38:10.956Z,59.29
2023-04-08T22:40:43.886Z,59.39
2023-04-08T22:43:16.710Z,59.54
2023-04-08T22:45:49.743Z,59.77
2023-04-08T22:48:24.017Z,59.80
2023-04-08T22:50:56.877Z,59.94
2023-04-08T22:53:29.722Z,59.83
2023-04-08T22:56:02.566Z,59.84
2023-04-08T22:58:35.750Z,60.04
2023-04-08T23:01:13.210Z,60.18
2023-04-08T23:03:47.564Z,60.22
2023-04-08T23:06:20.588Z,60.29
2023-04-08T23:08:53.625Z,60.41
2023-04-08T23:11:27.284Z,60.38
2023-04-08T23:14:00.129Z,60.43
2023-04-08T23:16:32.968Z,60.61
2023-04-08T23:19:07.151Z,60.68
2023-04-08T23:21:40.426Z,60.80
2023-04-08T23:24:13.212Z,60.87
2023-04-08T23:26:46.047Z,60.74
2023-04-08T23:29:18.844Z,60.77
2023-04-08T23:31:51.785Z,60.81
2023-04-08T23:34:26.025Z,60.81
2023-04-08T23:36:58.874Z,60.79
2023-04-08T23:39:31.751Z,60.70
2023-04-08T23:42:04.813Z,60.76
2023-04-08T23:44:37.633Z,60.84
2023-04-08T23:47:10.473Z,60.90
2023-04-08T23:49:44.632Z,61.01
2023-04-08T23:52:17.470Z,61.15
2023-04-08T23:54:51.033Z,61.23
2023-04-08T23:57:23.897Z,61.24
2023-04-08T23:59:57.823Z,61.13
